sensor_id;sensor_type;location;lat;lon;timestamp;P1;durP1;ratioP1;P2;durP2;ratioP2
77400;SDS011;74775;45.476;11.016;2024-03-02T00:00:07;2.90;;;0.60;;
77400;SDS011;74775;45.476;11.016;2024-03-02T00:02:42;6.40;;;0.90;;
77400;SDS011;74775;45.476;11.016;2024-03-02T00:05:12;3.70;;;0.70;;
77400;SDS011;74775;45.476;11.016;2024-03-02T00:07:41;3.30;;;0.70;;
77400;SDS011;74775;45.476;11.016;2024-03-02T00:10:09;4.80;;;0.70;;
77400;SDS011;74775;45.476;11.016;2024-03-02T00:12:40;4.10;;;1.00;;
77400;SDS011;74775;45.476;11.016;2024-03-02T00:17:53;4.10;;;0.80;;
77400;SDS011;74775;45.476;11.016;2024-03-02T00:20:24;3.80;;;0.90;;
77400;SDS011;74775;45.476;11.016;2024-03-02T00:23:02;5.80;;;0.80;;
77400;SDS011;74775;45.476;11.016;2024-03-02T00:25:40;3.60;;;0.80;;
77400;SDS011;74775;45.476;11.016;2024-03-02T00:30:51;2.60;;;0.60;;
77400;SDS011;74775;45.476;11.016;2024-03-02T00:33:22;2.60;;;0.50;;
77400;SDS011;74775;45.476;11.016;2024-03-02T00:35:49;4.10;;;1.10;;
77400;SDS011;74775;45.476;11.016;2024-03-02T00:38:16;4.40;;;0.70;;
77400;SDS011;74775;45.476;11.016;2024-03-02T00:40:43;5.20;;;0.90;;
77400;SDS011;74775;45.476;11.016;2024-03-02T00:43:58;2.70;;;0.70;;
77400;SDS011;74775;45.476;11.016;2024-03-02T00:46:15;3.80;;;0.60;;
77400;SDS011;74775;45.476;11.016;2024-03-02T00:48:50;6.80;;;0.60;;
77400;SDS011;74775;45.476;11.016;2024-03-02T00:51:23;1.70;;;0.60;;
77400;SDS011;74775;45.476;11.016;2024-03-02T00:53:52;2.90;;;1.10;;
77400;SDS011;74775;45.476;11.016;2024-03-02T00:56:22;2.10;;;0.70;;
77400;SDS011;74775;45.476;11.016;2024-03-02T00:58:50;1.10;;;0.50;;
77400;SDS011;74775;45.476;11.016;2024-03-02T01:01:17;2.20;;;0.70;;
77400;SDS011;74775;45.476;11.016;2024-03-02T01:03:46;3.00;;;0.40;;
77400;SDS011;74775;45.476;11.016;2024-03-02T01:06:14;2.30;;;0.60;;
77400;SDS011;74775;45.476;11.016;2024-03-02T01:08:41;3.90;;;0.60;;
77400;SDS011;74775;45.476;11.016;2024-03-02T01:11:08;2.70;;;0.70;;
77400;SDS011;74775;45.476;11.016;2024-03-02T01:13:35;2.20;;;0.60;;
77400;SDS011;74775;45.476;11.016;2024-03-02T01:16:02;2.80;;;0.40;;
77400;SDS011;74775;45.476;11.016;2024-03-02T01:18:30;3.10;;;0.70;;
77400;SDS011;74775;45.476;11.016;2024-03-02T01:20:59;2.90;;;0.60;;
77400;SDS011;74775;45.476;11.016;2024-03-02T01:23:26;2.70;;;0.60;;
77400;SDS011;74775;45.476;11.016;2024-03-02T01:25:53;3.90;;;0.60;;
77400;SDS011;74775;45.476;11.016;2024-03-02T01:28:20;2.20;;;0.40;;
77400;SDS011;74775;45.476;11.016;2024-03-02T01:30:47;0.80;;;0.30;;
77400;SDS011;74775;45.476;11.016;2024-03-02T01:33:16;3.10;;;0.40;;
77400;SDS011;74775;45.476;11.016;2024-03-02T01:35:44;3.00;;;0.30;;
77400;SDS011;74775;45.476;11.016;2024-03-02T01:38:11;3.20;;;0.50;;
77400;SDS011;74775;45.476;11.016;2024-03-02T01:40:38;3.10;;;0.30;;
77400;SDS011;74775;45.476;11.016;2024-03-02T01:43:05;2.00;;;0.50;;
77400;SDS011;74775;45.476;11.016;2024-03-02T01:45:33;1.80;;;0.40;;
77400;SDS011;74775;45.476;11.016;2024-03-02T01:48:02;3.00;;;0.40;;
77400;SDS011;74775;45.476;11.016;2024-03-02T01:50:30;2.70;;;0.40;;
77400;SDS011;74775;45.476;11.016;2024-03-02T01:52:58;2.70;;;0.50;;
77400;SDS011;74775;45.476;11.016;2024-03-02T01:55:26;1.60;;;0.40;;
77400;SDS011;74775;45.476;11.016;2024-03-02T01:57:54;3.50;;;0.40;;
77400;SDS011;74775;45.476;11.016;2024-03-02T02:00:21;1.80;;;0.40;;
77400;SDS011;74775;45.476;11.016;2024-03-02T02:02:49;2.90;;;0.40;;
77400;SDS011;74775;45.476;11.016;2024-03-02T02:05:16;2.80;;;0.30;;
77400;SDS011;74775;45.476;11.016;2024-03-02T02:07:43;2.30;;;0.50;;
77400;SDS011;74775;45.476;11.016;2024-03-02T02:10:10;1.70;;;0.20;;
77400;SDS011;74775;45.476;11.016;2024-03-02T02:12:37;2.60;;;0.50;;
77400;SDS011;74775;45.476;11.016;2024-03-02T02:15:24;3.20;;;0.50;;
77400;SDS011;74775;45.476;11.016;2024-03-02T02:17:52;2.70;;;0.40;;
77400;SDS011;74775;45.476;11.016;2024-03-02T02:20:20;2.80;;;0.30;;
77400;SDS011;74775;45.476;11.016;2024-03-02T02:23:02;2.50;;;0.30;;
77400;SDS011;74775;45.476;11.016;2024-03-02T02:25:31;1.50;;;0.30;;
77400;SDS011;74775;45.476;11.016;2024-03-02T02:27:59;1.30;;;0.30;;
77400;SDS011;74775;45.476;11.016;2024-03-02T02:30:27;1.40;;;0.20;;
77400;SDS011;74775;45.476;11.016;2024-03-02T02:32:57;1.50;;;0.40;;
77400;SDS011;74775;45.476;11.016;2024-03-02T02:35:24;0.80;;;0.30;;
77400;SDS011;74775;45.476;11.016;2024-03-02T02:37:52;0.90;;;0.20;;
77400;SDS011;74775;45.476;11.016;2024-03-02T02:40:20;3.10;;;0.20;;
77400;SDS011;74775;45.476;11.016;2024-03-02T02:42:47;1.70;;;0.30;;
77400;SDS011;74775;45.476;11.016;2024-03-02T02:45:15;1.30;;;0.30;;
77400;SDS011;74775;45.476;11.016;2024-03-02T02:47:43;2.00;;;0.30;;
77400;SDS011;74775;45.476;11.016;2024-03-02T02:50:11;3.90;;;0.40;;
77400;SDS011;74775;45.476;11.016;2024-03-02T02:52:39;1.60;;;0.30;;
77400;SDS011;74775;45.476;11.016;2024-03-02T02:55:08;2.20;;;0.60;;
77400;SDS011;74775;45.476;11.016;2024-03-02T02:57:37;3.00;;;0.20;;
77400;SDS011;74775;45.476;11.016;2024-03-02T03:00:15;1.40;;;0.20;;
77400;SDS011;74775;45.476;11.016;2024-03-02T03:02:46;1.20;;;0.30;;
77400;SDS011;74775;45.476;11.016;2024-03-02T03:05:17;3.30;;;0.70;;
77400;SDS011;74775;45.476;11.016;2024-03-02T03:07:44;1.00;;;0.20;;
77400;SDS011;74775;45.476;11.016;2024-03-02T03:10:12;2.50;;;0.40;;
77400;SDS011;74775;45.476;11.016;2024-03-02T03:12:41;1.50;;;0.50;;
77400;SDS011;74775;45.476;11.016;2024-03-02T03:15:10;3.00;;;0.40;;
77400;SDS011;74775;45.476;11.016;2024-03-02T03:17:38;3.60;;;0.50;;
77400;SDS011;74775;45.476;11.016;2024-03-02T03:20:06;3.20;;;0.40;;
77400;SDS011;74775;45.476;11.016;2024-03-02T03:22:37;3.20;;;0.50;;
77400;SDS011;74775;45.476;11.016;2024-03-02T03:25:05;3.10;;;0.40;;
77400;SDS011;74775;45.476;11.016;2024-03-02T03:27:35;3.70;;;0.60;;
77400;SDS011;74775;45.476;11.016;2024-03-02T03:30:02;4.50;;;0.50;;
77400;SDS011;74775;45.476;11.016;2024-03-02T03:32:30;1.80;;;0.40;;
77400;SDS011;74775;45.476;11.016;2024-03-02T03:34:56;2.10;;;0.70;;
77400;SDS011;74775;45.476;11.016;2024-03-02T03:37:23;3.60;;;0.40;;
77400;SDS011;74775;45.476;11.016;2024-03-02T03:39:52;2.40;;;0.40;;
77400;SDS011;74775;45.476;11.016;2024-03-02T03:42:19;1.40;;;0.40;;
77400;SDS011;74775;45.476;11.016;2024-03-02T03:44:46;2.10;;;0.50;;
77400;SDS011;74775;45.476;11.016;2024-03-02T03:47:13;1.20;;;0.20;;
77400;SDS011;74775;45.476;11.016;2024-03-02T03:49:39;3.30;;;0.40;;
77400;SDS011;74775;45.476;11.016;2024-03-02T03:52:09;3.80;;;0.50;;
77400;SDS011;74775;45.476;11.016;2024-03-02T03:54:35;2.10;;;0.40;;
77400;SDS011;74775;45.476;11.016;2024-03-02T03:57:05;2.00;;;0.30;;
77400;SDS011;74775;45.476;11.016;2024-03-02T03:59:32;0.80;;;0.40;;
77400;SDS011;74775;45.476;11.016;2024-03-02T04:01:59;2.50;;;0.40;;
77400;SDS011;74775;45.476;11.016;2024-03-02T04:04:25;3.40;;;0.40;;
77400;SDS011;74775;45.476;11.016;2024-03-02T04:06:52;2.10;;;0.60;;
77400;SDS011;74775;45.476;11.016;2024-03-02T04:09:19;1.80;;;0.40;;
77400;SDS011;74775;45.476;11.016;2024-03-02T04:11:46;2.60;;;0.60;;
77400;SDS011;74775;45.476;11.016;2024-03-02T04:14:13;1.90;;;0.70;;
77400;SDS011;74775;45.476;11.016;2024-03-02T04:16:40;3.30;;;0.60;;
77400;SDS011;74775;45.476;11.016;2024-03-02T04:19:07;3.80;;;0.60;;
77400;SDS011;74775;45.476;11.016;2024-03-02T04:21:34;5.00;;;0.50;;
77400;SDS011;74775;45.476;11.016;2024-03-02T04:24:01;2.30;;;0.50;;
77400;SDS011;74775;45.476;11.016;2024-03-02T04:26:28;2.80;;;0.50;;
77400;SDS011;74775;45.476;11.016;2024-03-02T04:28:54;4.40;;;0.90;;
77400;SDS011;74775;45.476;11.016;2024-03-02T04:31:21;4.60;;;1.10;;
77400;SDS011;74775;45.476;11.016;2024-03-02T04:33:48;3.00;;;0.70;;
77400;SDS011;74775;45.476;11.016;2024-03-02T04:36:15;4.20;;;1.00;;
77400;SDS011;74775;45.476;11.016;2024-03-02T04:38:42;3.90;;;0.70;;
77400;SDS011;74775;45.476;11.016;2024-03-02T04:41:11;6.10;;;1.60;;
77400;SDS011;74775;45.476;11.016;2024-03-02T04:43:37;4.10;;;0.70;;
77400;SDS011;74775;45.476;11.016;2024-03-02T04:46:05;1.90;;;1.00;;
77400;SDS011;74775;45.476;11.016;2024-03-02T04:51:00;2.40;;;0.40;;
77400;SDS011;74775;45.476;11.016;2024-03-02T04:53:27;3.30;;;1.00;;
77400;SDS011;74775;45.476;11.016;2024-03-02T04:55:54;3.50;;;0.90;;
77400;SDS011;74775;45.476;11.016;2024-03-02T04:58:50;6.70;;;0.80;;
77400;SDS011;74775;45.476;11.016;2024-03-02T05:01:17;3.20;;;0.70;;
77400;SDS011;74775;45.476;11.016;2024-03-02T05:03:44;5.30;;;0.70;;
77400;SDS011;74775;45.476;11.016;2024-03-02T05:06:12;2.80;;;0.60;;
77400;SDS011;74775;45.476;11.016;2024-03-02T05:08:38;5.60;;;0.60;;
77400;SDS011;74775;45.476;11.016;2024-03-02T05:11:05;1.80;;;0.50;;
77400;SDS011;74775;45.476;11.016;2024-03-02T05:13:51;2.40;;;1.00;;
77400;SDS011;74775;45.476;11.016;2024-03-02T05:16:18;3.10;;;0.60;;
77400;SDS011;74775;45.476;11.016;2024-03-02T05:18:44;1.20;;;0.50;;
77400;SDS011;74775;45.476;11.016;2024-03-02T05:21:11;3.30;;;0.90;;
77400;SDS011;74775;45.476;11.016;2024-03-02T05:23:39;3.00;;;0.50;;
77400;SDS011;74775;45.476;11.016;2024-03-02T05:26:06;3.90;;;0.60;;
77400;SDS011;74775;45.476;11.016;2024-03-02T05:28:33;4.40;;;1.20;;
77400;SDS011;74775;45.476;11.016;2024-03-02T05:31:00;2.70;;;0.50;;
77400;SDS011;74775;45.476;11.016;2024-03-02T05:33:27;1.60;;;0.80;;
77400;SDS011;74775;45.476;11.016;2024-03-02T05:35:55;3.10;;;0.60;;
77400;SDS011;74775;45.476;11.016;2024-03-02T05:38:22;2.60;;;0.30;;
77400;SDS011;74775;45.476;11.016;2024-03-02T05:40:49;2.40;;;0.60;;
77400;SDS011;74775;45.476;11.016;2024-03-02T05:43:16;3.90;;;0.70;;
77400;SDS011;74775;45.476;11.016;2024-03-02T05:45:43;2.40;;;0.50;;
77400;SDS011;74775;45.476;11.016;2024-03-02T05:48:10;2.00;;;0.50;;
77400;SDS011;74775;45.476;11.016;2024-03-02T05:50:38;5.90;;;0.80;;
77400;SDS011;74775;45.476;11.016;2024-03-02T05:53:07;2.40;;;0.50;;
77400;SDS011;74775;45.476;11.016;2024-03-02T05:55:35;2.10;;;0.40;;
77400;SDS011;74775;45.476;11.016;2024-03-02T05:58:02;2.00;;;0.50;;
77400;SDS011;74775;45.476;11.016;2024-03-02T06:00:57;2.70;;;0.60;;
77400;SDS011;74775;45.476;11.016;2024-03-02T06:03:25;3.60;;;0.50;;
77400;SDS011;74775;45.476;11.016;2024-03-02T06:05:52;3.60;;;0.50;;
77400;SDS011;74775;45.476;11.016;2024-03-02T06:08:19;2.60;;;0.60;;
77400;SDS011;74775;45.476;11.016;2024-03-02T06:10:46;2.80;;;0.50;;
77400;SDS011;74775;45.476;11.016;2024-03-02T06:13:13;2.00;;;0.50;;
77400;SDS011;74775;45.476;11.016;2024-03-02T06:15:40;3.00;;;0.80;;
77400;SDS011;74775;45.476;11.016;2024-03-02T06:18:08;3.80;;;1.10;;
77400;SDS011;74775;45.476;11.016;2024-03-02T06:20:35;2.30;;;0.70;;
77400;SDS011;74775;45.476;11.016;2024-03-02T06:23:03;2.30;;;0.70;;
77400;SDS011;74775;45.476;11.016;2024-03-02T06:25:30;4.50;;;1.10;;
77400;SDS011;74775;45.476;11.016;2024-03-02T06:27:57;2.50;;;1.00;;
77400;SDS011;74775;45.476;11.016;2024-03-02T06:30:25;2.90;;;0.60;;
77400;SDS011;74775;45.476;11.016;2024-03-02T06:32:52;3.60;;;0.70;;
77400;SDS011;74775;45.476;11.016;2024-03-02T06:35:19;3.20;;;0.90;;
77400;SDS011;74775;45.476;11.016;2024-03-02T06:37:46;2.40;;;0.80;;
77400;SDS011;74775;45.476;11.016;2024-03-02T06:40:13;4.20;;;0.70;;
77400;SDS011;74775;45.476;11.016;2024-03-02T06:42:39;3.30;;;1.00;;
77400;SDS011;74775;45.476;11.016;2024-03-02T06:45:06;3.70;;;1.20;;
77400;SDS011;74775;45.476;11.016;2024-03-02T06:47:33;5.20;;;0.80;;
77400;SDS011;74775;45.476;11.016;2024-03-02T06:50:00;2.80;;;0.80;;
77400;SDS011;74775;45.476;11.016;2024-03-02T06:52:27;3.70;;;0.90;;
77400;SDS011;74775;45.476;11.016;2024-03-02T06:54:54;4.60;;;0.70;;
77400;SDS011;74775;45.476;11.016;2024-03-02T06:57:21;4.50;;;1.30;;
77400;SDS011;74775;45.476;11.016;2024-03-02T06:59:48;5.00;;;0.80;;
77400;SDS011;74775;45.476;11.016;2024-03-02T07:02:18;3.90;;;1.10;;
77400;SDS011;74775;45.476;11.016;2024-03-02T07:04:45;3.50;;;1.30;;
77400;SDS011;74775;45.476;11.016;2024-03-02T07:07:14;3.80;;;0.70;;
77400;SDS011;74775;45.476;11.016;2024-03-02T07:09:44;3.50;;;0.90;;
77400;SDS011;74775;45.476;11.016;2024-03-02T07:12:10;2.60;;;0.70;;
77400;SDS011;74775;45.476;11.016;2024-03-02T07:14:37;4.30;;;0.70;;
77400;SDS011;74775;45.476;11.016;2024-03-02T07:17:22;3.10;;;0.60;;
77400;SDS011;74775;45.476;11.016;2024-03-02T07:19:49;2.80;;;0.70;;
77400;SDS011;74775;45.476;11.016;2024-03-02T07:22:16;3.00;;;0.70;;
77400;SDS011;74775;45.476;11.016;2024-03-02T07:24:44;2.40;;;0.50;;
77400;SDS011;74775;45.476;11.016;2024-03-02T07:27:13;2.90;;;0.80;;
77400;SDS011;74775;45.476;11.016;2024-03-02T07:29:43;1.80;;;0.60;;
77400;SDS011;74775;45.476;11.016;2024-03-02T07:32:10;2.00;;;0.50;;
77400;SDS011;74775;45.476;11.016;2024-03-02T07:34:37;2.30;;;0.70;;
77400;SDS011;74775;45.476;11.016;2024-03-02T07:37:04;2.40;;;0.80;;
77400;SDS011;74775;45.476;11.016;2024-03-02T07:39:32;1.70;;;0.70;;
77400;SDS011;74775;45.476;11.016;2024-03-02T07:41:59;2.90;;;0.70;;
77400;SDS011;74775;45.476;11.016;2024-03-02T07:44:26;2.50;;;0.60;;
77400;SDS011;74775;45.476;11.016;2024-03-02T07:46:53;2.10;;;0.50;;
77400;SDS011;74775;45.476;11.016;2024-03-02T07:49:20;1.40;;;0.40;;
77400;SDS011;74775;45.476;11.016;2024-03-02T07:51:47;1.20;;;0.30;;
77400;SDS011;74775;45.476;11.016;2024-03-02T07:54:14;2.40;;;0.50;;
77400;SDS011;74775;45.476;11.016;2024-03-02T07:56:41;3.00;;;0.80;;
77400;SDS011;74775;45.476;11.016;2024-03-02T07:59:08;1.70;;;0.50;;
77400;SDS011;74775;45.476;11.016;2024-03-02T08:01:35;1.70;;;0.50;;
77400;SDS011;74775;45.476;11.016;2024-03-02T08:04:03;1.90;;;0.50;;
77400;SDS011;74775;45.476;11.016;2024-03-02T08:06:30;1.60;;;0.30;;
77400;SDS011;74775;45.476;11.016;2024-03-02T08:08:58;0.50;;;0.40;;
77400;SDS011;74775;45.476;11.016;2024-03-02T08:11:26;1.60;;;1.10;;
77400;SDS011;74775;45.476;11.016;2024-03-02T08:13:53;1.70;;;0.60;;
77400;SDS011;74775;45.476;11.016;2024-03-02T08:16:24;3.60;;;0.60;;
77400;SDS011;74775;45.476;11.016;2024-03-02T08:18:52;2.20;;;0.60;;
77400;SDS011;74775;45.476;11.016;2024-03-02T08:21:19;2.90;;;0.90;;
77400;SDS011;74775;45.476;11.016;2024-03-02T08:23:47;0.90;;;0.50;;
77400;SDS011;74775;45.476;11.016;2024-03-02T08:26:14;0.90;;;0.40;;
77400;SDS011;74775;45.476;11.016;2024-03-02T08:28:40;4.00;;;0.60;;
77400;SDS011;74775;45.476;11.016;2024-03-02T08:31:08;2.30;;;0.70;;
77400;SDS011;74775;45.476;11.016;2024-03-02T08:33:35;2.50;;;1.20;;
77400;SDS011;74775;45.476;11.016;2024-03-02T08:36:04;1.90;;;0.40;;
77400;SDS011;74775;45.476;11.016;2024-03-02T08:38:32;4.20;;;0.40;;
77400;SDS011;74775;45.476;11.016;2024-03-02T08:40:59;3.10;;;0.70;;
77400;SDS011;74775;45.476;11.016;2024-03-02T08:43:26;2.00;;;0.30;;
77400;SDS011;74775;45.476;11.016;2024-03-02T08:45:53;3.20;;;0.70;;
77400;SDS011;74775;45.476;11.016;2024-03-02T08:48:20;1.10;;;0.50;;
77400;SDS011;74775;45.476;11.016;2024-03-02T08:50:47;0.60;;;0.40;;
77400;SDS011;74775;45.476;11.016;2024-03-02T08:53:14;3.50;;;0.80;;
77400;SDS011;74775;45.476;11.016;2024-03-02T08:55:48;1.40;;;1.10;;
77400;SDS011;74775;45.476;11.016;2024-03-02T08:58:15;1.90;;;0.60;;
77400;SDS011;74775;45.476;11.016;2024-03-02T09:00:42;1.80;;;0.50;;
77400;SDS011;74775;45.476;11.016;2024-03-02T09:03:09;2.20;;;0.50;;
77400;SDS011;74775;45.476;11.016;2024-03-02T09:05:37;2.20;;;0.70;;
77400;SDS011;74775;45.476;11.016;2024-03-02T09:08:06;2.20;;;0.40;;
77400;SDS011;74775;45.476;11.016;2024-03-02T09:10:33;2.00;;;0.50;;
77400;SDS011;74775;45.476;11.016;2024-03-02T09:13:00;2.00;;;0.50;;
77400;SDS011;74775;45.476;11.016;2024-03-02T09:15:27;2.40;;;0.40;;
77400;SDS011;74775;45.476;11.016;2024-03-02T09:17:54;1.50;;;0.40;;
77400;SDS011;74775;45.476;11.016;2024-03-02T09:20:21;2.30;;;0.50;;
77400;SDS011;74775;45.476;11.016;2024-03-02T09:22:49;2.20;;;0.60;;
77400;SDS011;74775;45.476;11.016;2024-03-02T09:25:16;2.20;;;0.50;;
77400;SDS011;74775;45.476;11.016;2024-03-02T09:27:43;1.80;;;0.50;;
77400;SDS011;74775;45.476;11.016;2024-03-02T09:30:10;2.20;;;1.10;;
77400;SDS011;74775;45.476;11.016;2024-03-02T09:32:40;2.10;;;0.70;;
77400;SDS011;74775;45.476;11.016;2024-03-02T09:35:07;0.60;;;0.50;;
77400;SDS011;74775;45.476;11.016;2024-03-02T09:37:35;5.40;;;0.60;;
77400;SDS011;74775;45.476;11.016;2024-03-02T09:40:02;3.50;;;0.90;;
77400;SDS011;74775;45.476;11.016;2024-03-02T09:42:30;1.90;;;0.60;;
77400;SDS011;74775;45.476;11.016;2024-03-02T09:44:58;1.70;;;0.60;;
77400;SDS011;74775;45.476;11.016;2024-03-02T09:47:25;5.10;;;0.80;;
77400;SDS011;74775;45.476;11.016;2024-03-02T09:49:52;1.60;;;0.70;;
77400;SDS011;74775;45.476;11.016;2024-03-02T09:52:20;1.70;;;0.60;;
77400;SDS011;74775;45.476;11.016;2024-03-02T09:54:47;1.60;;;0.50;;
77400;SDS011;74775;45.476;11.016;2024-03-02T09:57:15;0.80;;;0.60;;
77400;SDS011;74775;45.476;11.016;2024-03-02T09:59:42;3.20;;;0.60;;
77400;SDS011;74775;45.476;11.016;2024-03-02T10:02:09;1.20;;;0.60;;
77400;SDS011;74775;45.476;11.016;2024-03-02T10:04:36;1.00;;;0.30;;
77400;SDS011;74775;45.476;11.016;2024-03-02T10:07:13;1.50;;;0.50;;
77400;SDS011;74775;45.476;11.016;2024-03-02T10:09:47;2.60;;;0.60;;
77400;SDS011;74775;45.476;11.016;2024-03-02T10:12:15;1.60;;;0.40;;
77400;SDS011;74775;45.476;11.016;2024-03-02T10:14:43;2.00;;;0.50;;
77400;SDS011;74775;45.476;11.016;2024-03-02T10:17:12;2.90;;;0.40;;
77400;SDS011;74775;45.476;11.016;2024-03-02T10:19:39;2.10;;;0.50;;
77400;SDS011;74775;45.476;11.016;2024-03-02T10:22:07;2.10;;;0.40;;
77400;SDS011;74775;45.476;11.016;2024-03-02T10:24:41;2.10;;;0.40;;
77400;SDS011;74775;45.476;11.016;2024-03-02T10:27:15;2.50;;;0.50;;
77400;SDS011;74775;45.476;11.016;2024-03-02T10:29:45;2.50;;;1.20;;
77400;SDS011;74775;45.476;11.016;2024-03-02T10:32:13;2.00;;;0.40;;
77400;SDS011;74775;45.476;11.016;2024-03-02T10:34:40;1.60;;;0.90;;
77400;SDS011;74775;45.476;11.016;2024-03-02T10:37:08;2.00;;;0.60;;
77400;SDS011;74775;45.476;11.016;2024-03-02T10:39:35;2.00;;;0.70;;
77400;SDS011;74775;45.476;11.016;2024-03-02T10:42:03;2.80;;;0.60;;
77400;SDS011;74775;45.476;11.016;2024-03-02T10:44:30;1.80;;;0.70;;
77400;SDS011;74775;45.476;11.016;2024-03-02T10:47:04;1.50;;;0.80;;
77400;SDS011;74775;45.476;11.016;2024-03-02T10:49:32;1.70;;;0.50;;
77400;SDS011;74775;45.476;11.016;2024-03-02T10:52:00;1.20;;;0.40;;
77400;SDS011;74775;45.476;11.016;2024-03-02T10:54:28;1.80;;;0.60;;
77400;SDS011;74775;45.476;11.016;2024-03-02T10:57:04;0.90;;;0.50;;
77400;SDS011;74775;45.476;11.016;2024-03-02T10:59:35;1.10;;;0.40;;
77400;SDS011;74775;45.476;11.016;2024-03-02T11:02:05;3.40;;;0.60;;
77400;SDS011;74775;45.476;11.016;2024-03-02T11:04:35;0.60;;;0.30;;
77400;SDS011;74775;45.476;11.016;2024-03-02T11:07:02;1.40;;;0.40;;
77400;SDS011;74775;45.476;11.016;2024-03-02T11:09:33;1.20;;;0.50;;
77400;SDS011;74775;45.476;11.016;2024-03-02T11:14:57;1.80;;;1.00;;
77400;SDS011;74775;45.476;11.016;2024-03-02T11:17:25;2.60;;;1.20;;
77400;SDS011;74775;45.476;11.016;2024-03-02T11:19:52;2.70;;;1.30;;
77400;SDS011;74775;45.476;11.016;2024-03-02T11:22:19;2.70;;;1.00;;
77400;SDS011;74775;45.476;11.016;2024-03-02T11:24:47;2.40;;;1.10;;
77400;SDS011;74775;45.476;11.016;2024-03-02T11:27:20;1.60;;;0.80;;
77400;SDS011;74775;45.476;11.016;2024-03-02T11:33:02;2.80;;;0.60;;
77400;SDS011;74775;45.476;11.016;2024-03-02T11:35:41;1.70;;;0.80;;
77400;SDS011;74775;45.476;11.016;2024-03-02T11:38:09;1.30;;;0.70;;
77400;SDS011;74775;45.476;11.016;2024-03-02T11:40:36;2.70;;;1.20;;
77400;SDS011;74775;45.476;11.016;2024-03-02T11:43:05;4.50;;;1.10;;
77400;SDS011;74775;45.476;11.016;2024-03-02T11:48:08;2.90;;;1.00;;
77400;SDS011;74775;45.476;11.016;2024-03-02T11:50:42;3.00;;;1.30;;
77400;SDS011;74775;45.476;11.016;2024-03-02T11:53:13;2.40;;;1.00;;
77400;SDS011;74775;45.476;11.016;2024-03-02T11:55:41;2.80;;;1.20;;
77400;SDS011;74775;45.476;11.016;2024-03-02T11:58:13;2.10;;;1.00;;
77400;SDS011;74775;45.476;11.016;2024-03-02T12:00:40;3.30;;;1.20;;
77400;SDS011;74775;45.476;11.016;2024-03-02T12:03:08;2.40;;;1.00;;
77400;SDS011;74775;45.476;11.016;2024-03-02T12:05:36;3.90;;;1.50;;
77400;SDS011;74775;45.476;11.016;2024-03-02T12:08:04;4.40;;;2.40;;
77400;SDS011;74775;45.476;11.016;2024-03-02T12:10:33;3.50;;;1.80;;
77400;SDS011;74775;45.476;11.016;2024-03-02T12:13:02;2.70;;;1.40;;
77400;SDS011;74775;45.476;11.016;2024-03-02T12:15:31;3.60;;;1.30;;
77400;SDS011;74775;45.476;11.016;2024-03-02T12:18:00;2.50;;;1.10;;
77400;SDS011;74775;45.476;11.016;2024-03-02T12:20:29;2.20;;;1.40;;
77400;SDS011;74775;45.476;11.016;2024-03-02T12:22:58;2.40;;;1.00;;
77400;SDS011;74775;45.476;11.016;2024-03-02T12:25:29;3.30;;;1.20;;
77400;SDS011;74775;45.476;11.016;2024-03-02T12:27:58;2.00;;;1.00;;
77400;SDS011;74775;45.476;11.016;2024-03-02T12:30:26;11.30;;;6.90;;
77400;SDS011;74775;45.476;11.016;2024-03-02T12:32:57;21.60;;;13.90;;
77400;SDS011;74775;45.476;11.016;2024-03-02T12:35:24;73.40;;;39.80;;
77400;SDS011;74775;45.476;11.016;2024-03-02T12:37:52;70.40;;;37.60;;
77400;SDS011;74775;45.476;11.016;2024-03-02T12:40:20;55.00;;;31.70;;
77400;SDS011;74775;45.476;11.016;2024-03-02T12:42:50;25.00;;;16.20;;
77400;SDS011;74775;45.476;11.016;2024-03-02T12:45:17;6.60;;;4.10;;
77400;SDS011;74775;45.476;11.016;2024-03-02T12:47:51;2.40;;;1.50;;
77400;SDS011;74775;45.476;11.016;2024-03-02T12:50:20;3.50;;;1.50;;
77400;SDS011;74775;45.476;11.016;2024-03-02T12:52:53;3.20;;;1.70;;
77400;SDS011;74775;45.476;11.016;2024-03-02T12:55:22;2.20;;;1.50;;
77400;SDS011;74775;45.476;11.016;2024-03-02T12:57:51;2.70;;;1.70;;
77400;SDS011;74775;45.476;11.016;2024-03-02T13:00:20;5.80;;;3.50;;
77400;SDS011;74775;45.476;11.016;2024-03-02T13:02:49;4.10;;;2.60;;
77400;SDS011;74775;45.476;11.016;2024-03-02T13:05:18;4.80;;;2.10;;
77400;SDS011;74775;45.476;11.016;2024-03-02T13:07:47;3.10;;;1.70;;
77400;SDS011;74775;45.476;11.016;2024-03-02T13:10:15;6.30;;;2.00;;
77400;SDS011;74775;45.476;11.016;2024-03-02T13:12:44;4.10;;;1.80;;
77400;SDS011;74775;45.476;11.016;2024-03-02T13:15:11;3.90;;;2.00;;
77400;SDS011;74775;45.476;11.016;2024-03-02T13:17:44;2.40;;;1.40;;
77400;SDS011;74775;45.476;11.016;2024-03-02T13:20:15;4.00;;;1.60;;
77400;SDS011;74775;45.476;11.016;2024-03-02T13:22:44;2.30;;;1.40;;
77400;SDS011;74775;45.476;11.016;2024-03-02T13:25:11;4.50;;;1.80;;
77400;SDS011;74775;45.476;11.016;2024-03-02T13:27:39;3.10;;;2.20;;
77400;SDS011;74775;45.476;11.016;2024-03-02T13:30:07;2.50;;;2.00;;
77400;SDS011;74775;45.476;11.016;2024-03-02T13:32:35;4.00;;;1.60;;
77400;SDS011;74775;45.476;11.016;2024-03-02T13:35:03;4.50;;;2.10;;
77400;SDS011;74775;45.476;11.016;2024-03-02T13:37:30;3.90;;;1.70;;
77400;SDS011;74775;45.476;11.016;2024-03-02T13:39:57;3.20;;;1.80;;
77400;SDS011;74775;45.476;11.016;2024-03-02T13:42:24;3.70;;;2.40;;
77400;SDS011;74775;45.476;11.016;2024-03-02T13:44:51;2.90;;;2.50;;
77400;SDS011;74775;45.476;11.016;2024-03-02T13:47:19;4.20;;;2.90;;
77400;SDS011;74775;45.476;11.016;2024-03-02T13:49:48;2.90;;;1.80;;
77400;SDS011;74775;45.476;11.016;2024-03-02T13:52:15;3.20;;;1.70;;
77400;SDS011;74775;45.476;11.016;2024-03-02T13:54:46;3.10;;;1.40;;
77400;SDS011;74775;45.476;11.016;2024-03-02T13:57:14;8.20;;;4.90;;
77400;SDS011;74775;45.476;11.016;2024-03-02T13:59:42;2.90;;;2.20;;
77400;SDS011;74775;45.476;11.016;2024-03-02T14:02:10;2.50;;;1.80;;
77400;SDS011;74775;45.476;11.016;2024-03-02T14:04:38;7.10;;;5.60;;
77400;SDS011;74775;45.476;11.016;2024-03-02T14:07:06;4.70;;;3.70;;
77400;SDS011;74775;45.476;11.016;2024-03-02T14:09:37;5.40;;;4.30;;
77400;SDS011;74775;45.476;11.016;2024-03-02T14:12:04;2.20;;;2.00;;
77400;SDS011;74775;45.476;11.016;2024-03-02T14:14:32;2.80;;;1.40;;
77400;SDS011;74775;45.476;11.016;2024-03-02T14:16:59;2.00;;;0.90;;
77400;SDS011;74775;45.476;11.016;2024-03-02T14:19:30;2.70;;;1.20;;
77400;SDS011;74775;45.476;11.016;2024-03-02T14:21:57;2.60;;;1.20;;
77400;SDS011;74775;45.476;11.016;2024-03-02T14:24:25;2.00;;;0.80;;
77400;SDS011;74775;45.476;11.016;2024-03-02T14:26:53;2.50;;;0.80;;
77400;SDS011;74775;45.476;11.016;2024-03-02T14:29:30;2.10;;;1.20;;
77400;SDS011;74775;45.476;11.016;2024-03-02T14:31:58;2.90;;;1.10;;
77400;SDS011;74775;45.476;11.016;2024-03-02T14:34:24;2.20;;;2.00;;
77400;SDS011;74775;45.476;11.016;2024-03-02T14:36:51;2.90;;;1.70;;
77400;SDS011;74775;45.476;11.016;2024-03-02T14:39:18;1.70;;;1.30;;
77400;SDS011;74775;45.476;11.016;2024-03-02T14:41:46;1.80;;;1.10;;
77400;SDS011;74775;45.476;11.016;2024-03-02T14:44:15;3.60;;;1.70;;
77400;SDS011;74775;45.476;11.016;2024-03-02T14:46:43;2.00;;;1.30;;
77400;SDS011;74775;45.476;11.016;2024-03-02T14:49:13;2.50;;;1.40;;
77400;SDS011;74775;45.476;11.016;2024-03-02T14:51:40;2.10;;;1.50;;
77400;SDS011;74775;45.476;11.016;2024-03-02T14:54:07;3.60;;;1.40;;
77400;SDS011;74775;45.476;11.016;2024-03-02T14:56:35;2.80;;;1.30;;